sensor_id;sensor_type;location;lat;lon;timestamp;pressure;altitude;pressure_sealevel;temperature;humidity
45040;BME280;30778;53.574;7.770;2024-01-07T00:01:35;102094.94;;;-3.67;55.34
45040;BME280;30778;53.574;7.770;2024-01-07T00:04:01;102101.94;;;-3.83;55.37
45040;BME280;30778;53.574;7.770;2024-01-07T00:06:26;102109.88;;;-3.55;55.11
45040;BME280;30778;53.574;7.770;2024-01-07T00:08:54;102107.44;;;-3.52;55.43
45040;BME280;30778;53.574;7.770;2024-01-07T00:11:20;102106.88;;;-3.44;55.46
45040;BME280;30778;53.574;7.770;2024-01-07T00:13:45;102108.72;;;-3.63;56.02
45040;BME280;30778;53.574;7.770;2024-01-07T00:16:11;102119.47;;;-3.49;55.85
45040;BME280;30778;53.574;7.770;2024-01-07T00:18:37;102116.56;;;-3.36;55.36
45040;BME280;30778;53.574;7.770;2024-01-07T00:21:02;102117.09;;;-3.67;55.29
45040;BME280;30778;53.574;7.770;2024-01-07T00:23:28;102117.09;;;-3.67;55.30
45040;BME280;30778;53.574;7.770;2024-01-07T00:25:53;102118.38;;;-3.77;55.68
45040;BME280;30778;53.574;7.770;2024-01-07T00:28:20;102126.63;;;-3.63;55.21
45040;BME280;30778;53.574;7.770;2024-01-07T00:30:45;102122.06;;;-3.48;54.65
45040;BME280;30778;53.574;7.770;2024-01-07T00:33:11;102129.03;;;-3.66;54.68
45040;BME280;30778;53.574;7.770;2024-01-07T00:35:36;102136.94;;;-3.37;54.32
45040;BME280;30778;53.574;7.770;2024-01-07T00:38:02;102137.75;;;-3.61;54.81
45040;BME280;30778;53.574;7.770;2024-01-07T00:40:27;102136.84;;;-3.40;54.14
45040;BME280;30778;53.574;7.770;2024-01-07T00:42:53;102139.03;;;-3.50;54.27
45040;BME280;30778;53.574;7.770;2024-01-07T00:45:19;102139.00;;;-3.72;54.68
45040;BME280;30778;53.574;7.770;2024-01-07T00:47:45;102143.84;;;-3.57;54.40
45040;BME280;30778;53.574;7.770;2024-01-07T00:50:11;102143.44;;;-3.46;53.77
45040;BME280;30778;53.574;7.770;2024-01-07T00:52:36;102138.66;;;-3.38;53.81
45040;BME280;30778;53.574;7.770;2024-01-07T00:55:05;102143.94;;;-3.33;53.68
45040;BME280;30778;53.574;7.770;2024-01-07T00:57:32;102141.53;;;-3.29;53.60
45040;BME280;30778;53.574;7.770;2024-01-07T00:59:58;102150.78;;;-3.32;53.67
45040;BME280;30778;53.574;7.770;2024-01-07T01:02:23;102149.97;;;-3.54;53.86
45040;BME280;30778;53.574;7.770;2024-01-07T01:04:49;102156.78;;;-3.32;53.68
45040;BME280;30778;53.574;7.770;2024-01-07T01:07:14;102162.88;;;-3.28;53.76
45040;BME280;30778;53.574;7.770;2024-01-07T01:09:40;102166.44;;;-3.46;54.19
45040;BME280;30778;53.574;7.770;2024-01-07T01:12:05;102165.31;;;-3.54;53.87
45040;BME280;30778;53.574;7.770;2024-01-07T01:14:31;102167.00;;;-3.32;52.97
45040;BME280;30778;53.574;7.770;2024-01-07T01:16:56;102168.63;;;-3.34;53.15
45040;BME280;30778;53.574;7.770;2024-01-07T01:19:23;102172.75;;;-3.37;53.39
45040;BME280;30778;53.574;7.770;2024-01-07T01:21:49;102175.28;;;-3.60;53.34
45040;BME280;30778;53.574;7.770;2024-01-07T01:24:15;102173.69;;;-3.35;53.11
45040;BME280;30778;53.574;7.770;2024-01-07T01:26:41;102179.22;;;-3.24;53.22
45040;BME280;30778;53.574;7.770;2024-01-07T01:29:06;102185.69;;;-3.33;53.09
45040;BME280;30778;53.574;7.770;2024-01-07T01:31:32;102184.81;;;-3.56;53.99
45040;BME280;30778;53.574;7.770;2024-01-07T01:33:57;102180.34;;;-3.16;53.63
45040;BME280;30778;53.574;7.770;2024-01-07T01:36:24;102190.88;;;-3.31;54.42
45040;BME280;30778;53.574;7.770;2024-01-07T01:38:49;102196.28;;;-3.23;53.85
45040;BME280;30778;53.574;7.770;2024-01-07T01:41:16;102200.25;;;-3.53;55.00
45040;BME280;30778;53.574;7.770;2024-01-07T01:43:42;102207.00;;;-3.55;54.82
45040;BME280;30778;53.574;7.770;2024-01-07T01:46:07;102217.69;;;-3.65;55.29
45040;BME280;30778;53.574;7.770;2024-01-07T01:48:37;102218.00;;;-3.78;55.32
45040;BME280;30778;53.574;7.770;2024-01-07T01:51:02;102215.91;;;-3.66;55.11
45040;BME280;30778;53.574;7.770;2024-01-07T01:53:29;102222.06;;;-3.40;54.75
45040;BME280;30778;53.574;7.770;2024-01-07T01:55:57;102222.38;;;-3.32;54.41
45040;BME280;30778;53.574;7.770;2024-01-07T01:58:25;102224.63;;;-3.40;54.87
45040;BME280;30778;53.574;7.770;2024-01-07T02:00:50;102221.97;;;-3.64;54.94
45040;BME280;30778;53.574;7.770;2024-01-07T02:03:17;102228.59;;;-3.69;54.90
45040;BME280;30778;53.574;7.770;2024-01-07T02:05:43;102218.09;;;-3.54;54.28
45040;BME280;30778;53.574;7.770;2024-01-07T02:08:09;102229.03;;;-3.58;54.63
45040;BME280;30778;53.574;7.770;2024-01-07T02:10:35;102237.22;;;-3.65;54.86
45040;BME280;30778;53.574;7.770;2024-01-07T02:13:04;102230.50;;;-3.63;54.66
45040;BME280;30778;53.574;7.770;2024-01-07T02:15:31;102229.09;;;-3.34;54.10
45040;BME280;30778;53.574;7.770;2024-01-07T02:17:56;102229.25;;;-3.73;55.05
45040;BME280;30778;53.574;7.770;2024-01-07T02:20:23;102240.41;;;-3.50;54.92
45040;BME280;30778;53.574;7.770;2024-01-07T02:22:49;102236.53;;;-3.61;55.26
45040;BME280;30778;53.574;7.770;2024-01-07T02:25:14;102242.13;;;-3.28;55.10
45040;BME280;30778;53.574;7.770;2024-01-07T02:27:40;102239.44;;;-3.54;55.60
45040;BME280;30778;53.574;7.770;2024-01-07T02:30:06;102236.31;;;-3.47;56.36
45040;BME280;30778;53.574;7.770;2024-01-07T02:32:31;102247.34;;;-3.25;55.51
45040;BME280;30778;53.574;7.770;2024-01-07T02:35:00;102254.81;;;-3.31;55.51
45040;BME280;30778;53.574;7.770;2024-01-07T02:37:25;102253.41;;;-3.23;55.60
45040;BME280;30778;53.574;7.770;2024-01-07T02:39:51;102251.56;;;-3.27;55.46
45040;BME280;30778;53.574;7.770;2024-01-07T02:42:16;102261.22;;;-3.20;55.20
45040;BME280;30778;53.574;7.770;2024-01-07T02:44:42;102270.25;;;-3.28;54.81
45040;BME280;30778;53.574;7.770;2024-01-07T02:47:07;102274.50;;;-3.50;54.69
45040;BME280;30778;53.574;7.770;2024-01-07T02:49:33;102272.25;;;-3.21;54.43
45040;BME280;30778;53.574;7.770;2024-01-07T02:51:58;102277.94;;;-3.28;53.94
45040;BME280;30778;53.574;7.770;2024-01-07T02:54:24;102276.84;;;-3.12;53.29
45040;BME280;30778;53.574;7.770;2024-01-07T02:56:49;102285.38;;;-3.12;53.26
45040;BME280;30778;53.574;7.770;2024-01-07T02:59:15;102277.00;;;-3.30;52.92
45040;BME280;30778;53.574;7.770;2024-01-07T03:01:40;102282.38;;;-3.24;52.89
45040;BME280;30778;53.574;7.770;2024-01-07T03:04:11;102281.16;;;-3.32;52.83
45040;BME280;30778;53.574;7.770;2024-01-07T03:06:37;102282.97;;;-3.09;52.04
45040;BME280;30778;53.574;7.770;2024-01-07T03:09:03;102282.66;;;-2.94;51.79
45040;BME280;30778;53.574;7.770;2024-01-07T03:11:29;102286.47;;;-3.07;51.78
45040;BME280;30778;53.574;7.770;2024-01-07T03:13:58;102284.16;;;-3.00;51.17
45040;BME280;30778;53.574;7.770;2024-01-07T03:16:25;102288.63;;;-3.38;51.88
45040;BME280;30778;53.574;7.770;2024-01-07T03:18:51;102290.72;;;-3.28;51.01
45040;BME280;30778;53.574;7.770;2024-01-07T03:21:22;102292.59;;;-3.24;51.11
45040;BME280;30778;53.574;7.770;2024-01-07T03:23:48;102296.09;;;-3.22;50.84
45040;BME280;30778;53.574;7.770;2024-01-07T03:26:16;102305.81;;;-3.34;50.70
45040;BME280;30778;53.574;7.770;2024-01-07T03:28:41;102305.94;;;-3.31;50.43
45040;BME280;30778;53.574;7.770;2024-01-07T03:31:18;102307.06;;;-3.24;50.19
45040;BME280;30778;53.574;7.770;2024-01-07T03:33:44;102322.16;;;-3.31;50.32
45040;BME280;30778;53.574;7.770;2024-01-07T03:36:11;102324.16;;;-3.23;49.99
45040;BME280;30778;53.574;7.770;2024-01-07T03:38:38;102317.53;;;-3.18;49.87
45040;BME280;30778;53.574;7.770;2024-01-07T03:41:04;102327.13;;;-3.55;49.45
45040;BME280;30778;53.574;7.770;2024-01-07T03:43:30;102326.44;;;-3.51;49.67
45040;BME280;30778;53.574;7.770;2024-01-07T03:45:56;102327.84;;;-3.38;48.66
45040;BME280;30778;53.574;7.770;2024-01-07T03:48:21;102338.47;;;-3.48;48.72
45040;BME280;30778;53.574;7.770;2024-01-07T03:50:47;102330.25;;;-3.62;49.46
45040;BME280;30778;53.574;7.770;2024-01-07T03:53:12;102342.72;;;-3.49;48.84
45040;BME280;30778;53.574;7.770;2024-01-07T03:55:38;102344.53;;;-3.25;48.22
45040;BME280;30778;53.574;7.770;2024-01-07T03:58:04;102341.97;;;-3.46;48.66
45040;BME280;30778;53.574;7.770;2024-01-07T04:00:30;102344.97;;;-3.35;48.18
45040;BME280;30778;53.574;7.770;2024-01-07T04:02:56;102354.34;;;-3.36;47.46
45040;BME280;30778;53.574;7.770;2024-01-07T04:05:22;102354.84;;;-3.44;47.96
45040;BME280;30778;53.574;7.770;2024-01-07T04:07:47;102363.88;;;-3.11;47.62
45040;BME280;30778;53.574;7.770;2024-01-07T04:10:13;102365.06;;;-3.02;47.25
45040;BME280;30778;53.574;7.770;2024-01-07T04:12:40;102369.78;;;-3.12;47.59
45040;BME280;30778;53.574;7.770;2024-01-07T04:15:05;102368.44;;;-3.03;47.58
45040;BME280;30778;53.574;7.770;2024-01-07T04:17:31;102382.41;;;-3.37;47.97
45040;BME280;30778;53.574;7.770;2024-01-07T04:19:56;102380.88;;;-3.53;47.68
45040;BME280;30778;53.574;7.770;2024-01-07T04:22:22;102382.78;;;-3.28;47.71
45040;BME280;30778;53.574;7.770;2024-01-07T04:24:47;102377.78;;;-3.25;47.71
45040;BME280;30778;53.574;7.770;2024-01-07T04:27:13;102378.88;;;-3.60;48.02
45040;BME280;30778;53.574;7.770;2024-01-07T04:29:38;102387.88;;;-3.28;48.11
45040;BME280;30778;53.574;7.770;2024-01-07T04:32:04;102386.91;;;-3.11;47.96
45040;BME280;30778;53.574;7.770;2024-01-07T04:34:30;102399.13;;;-3.03;47.50
45040;BME280;30778;53.574;7.770;2024-01-07T04:36:56;102389.16;;;-2.97;47.85
45040;BME280;30778;53.574;7.770;2024-01-07T04:39:21;102395.22;;;-2.95;48.06
45040;BME280;30778;53.574;7.770;2024-01-07T04:41:47;102398.88;;;-3.10;47.92
45040;BME280;30778;53.574;7.770;2024-01-07T04:44:12;102401.44;;;-2.89;47.72
45040;BME280;30778;53.574;7.770;2024-01-07T04:46:38;102408.25;;;-2.89;48.07
45040;BME280;30778;53.574;7.770;2024-01-07T04:49:04;102417.78;;;-3.06;48.21
45040;BME280;30778;53.574;7.770;2024-01-07T04:51:31;102418.22;;;-2.95;48.14
45040;BME280;30778;53.574;7.770;2024-01-07T04:53:57;102427.44;;;-3.20;48.62
45040;BME280;30778;53.574;7.770;2024-01-07T04:56:22;102432.06;;;-3.11;48.47
45040;BME280;30778;53.574;7.770;2024-01-07T04:58:48;102435.19;;;-2.97;48.46
45040;BME280;30778;53.574;7.770;2024-01-07T05:01:14;102435.47;;;-2.91;48.19
45040;BME280;30778;53.574;7.770;2024-01-07T05:03:39;102445.69;;;-2.91;48.00
45040;BME280;30778;53.574;7.770;2024-01-07T05:06:07;102440.50;;;-3.14;48.28
45040;BME280;30778;53.574;7.770;2024-01-07T05:08:33;102442.31;;;-2.69;47.64
45040;BME280;30778;53.574;7.770;2024-01-07T05:10:59;102451.53;;;-2.94;48.04
45040;BME280;30778;53.574;7.770;2024-01-07T05:13:24;102462.91;;;-2.87;47.77
45040;BME280;30778;53.574;7.770;2024-01-07T05:15:50;102456.31;;;-2.82;47.83
45040;BME280;30778;53.574;7.770;2024-01-07T05:18:22;102466.28;;;-2.88;48.16
45040;BME280;30778;53.574;7.770;2024-01-07T05:20:48;102468.66;;;-2.93;48.39
45040;BME280;30778;53.574;7.770;2024-01-07T05:23:14;102466.28;;;-2.67;47.80
45040;BME280;30778;53.574;7.770;2024-01-07T05:25:39;102464.28;;;-2.95;48.37
45040;BME280;30778;53.574;7.770;2024-01-07T05:28:05;102466.03;;;-2.94;48.15
45040;BME280;30778;53.574;7.770;2024-01-07T05:30:31;102469.25;;;-2.98;48.00
45040;BME280;30778;53.574;7.770;2024-01-07T05:32:57;102467.44;;;-3.01;48.12
45040;BME280;30778;53.574;7.770;2024-01-07T05:35:22;102477.56;;;-2.83;47.88
45040;BME280;30778;53.574;7.770;2024-01-07T05:37:48;102471.41;;;-2.88;48.15
45040;BME280;30778;53.574;7.770;2024-01-07T05:40:13;102472.00;;;-2.94;47.78
45040;BME280;30778;53.574;7.770;2024-01-07T05:42:39;102481.13;;;-2.79;47.73
45040;BME280;30778;53.574;7.770;2024-01-07T05:45:05;102470.03;;;-2.80;47.67
45040;BME280;30778;53.574;7.770;2024-01-07T05:47:30;102475.16;;;-2.80;47.85
45040;BME280;30778;53.574;7.770;2024-01-07T05:49:56;102476.47;;;-2.69;47.07
45040;BME280;30778;53.574;7.770;2024-01-07T05:52:21;102473.84;;;-2.91;47.96
45040;BME280;30778;53.574;7.770;2024-01-07T05:54:47;102471.25;;;-3.12;48.04
45040;BME280;30778;53.574;7.770;2024-01-07T05:57:12;102489.19;;;-2.91;47.85
45040;BME280;30778;53.574;7.770;2024-01-07T05:59:38;102483.59;;;-2.82;47.36
45040;BME280;30778;53.574;7.770;2024-01-07T06:02:03;102496.13;;;-2.68;47.73
45040;BME280;30778;53.574;7.770;2024-01-07T06:04:29;102497.38;;;-2.58;47.64
45040;BME280;30778;53.574;7.770;2024-01-07T06:06:54;102504.16;;;-2.58;47.39
45040;BME280;30778;53.574;7.770;2024-01-07T06:09:20;102511.75;;;-2.61;47.54
45040;BME280;30778;53.574;7.770;2024-01-07T06:11:46;102510.97;;;-2.59;47.66
45040;BME280;30778;53.574;7.770;2024-01-07T06:14:12;102516.84;;;-2.82;48.14
45040;BME280;30778;53.574;7.770;2024-01-07T06:16:38;102520.78;;;-2.70;47.79
45040;BME280;30778;53.574;7.770;2024-01-07T06:19:04;102528.59;;;-2.67;47.58
45040;BME280;30778;53.574;7.770;2024-01-07T06:21:29;102524.25;;;-2.89;47.49
45040;BME280;30778;53.574;7.770;2024-01-07T06:23:55;102535.25;;;-2.91;47.55
45040;BME280;30778;53.574;7.770;2024-01-07T06:26:21;102538.84;;;-2.67;47.40
45040;BME280;30778;53.574;7.770;2024-01-07T06:28:46;102538.31;;;-2.79;47.58
45040;BME280;30778;53.574;7.770;2024-01-07T06:31:12;102532.94;;;-2.85;47.32
45040;BME280;30778;53.574;7.770;2024-01-07T06:33:37;102539.00;;;-2.83;47.46
45040;BME280;30778;53.574;7.770;2024-01-07T06:36:03;102544.78;;;-2.87;47.29
45040;BME280;30778;53.574;7.770;2024-01-07T06:38:30;102554.53;;;-2.78;47.16
45040;BME280;30778;53.574;7.770;2024-01-07T06:40:55;102554.91;;;-2.90;47.62
45040;BME280;30778;53.574;7.770;2024-01-07T06:43:25;102556.47;;;-2.53;46.71
45040;BME280;30778;53.574;7.770;2024-01-07T06:45:50;102564.94;;;-2.54;47.46
45040;BME280;30778;53.574;7.770;2024-01-07T06:48:16;102563.31;;;-2.52;47.11
45040;BME280;30778;53.574;7.770;2024-01-07T06:50:41;102568.06;;;-2.40;47.07
45040;BME280;30778;53.574;7.770;2024-01-07T06:53:07;102573.31;;;-2.37;47.08
45040;BME280;30778;53.574;7.770;2024-01-07T06:55:32;102570.94;;;-2.33;47.18
45040;BME280;30778;53.574;7.770;2024-01-07T06:57:58;102578.44;;;-2.37;47.52
45040;BME280;30778;53.574;7.770;2024-01-07T07:00:24;102586.31;;;-2.33;47.39
45040;BME280;30778;53.574;7.770;2024-01-07T07:02:49;102580.81;;;-2.42;47.54
45040;BME280;30778;53.574;7.770;2024-01-07T07:05:15;102587.00;;;-2.37;47.35
45040;BME280;30778;53.574;7.770;2024-01-07T07:07:40;102585.69;;;-2.48;47.45
45040;BME280;30778;53.574;7.770;2024-01-07T07:10:06;102593.66;;;-2.61;47.38
45040;BME280;30778;53.574;7.770;2024-01-07T07:12:32;102594.25;;;-2.67;47.58
45040;BME280;30778;53.574;7.770;2024-01-07T07:14:57;102593.03;;;-2.56;47.32
45040;BME280;30778;53.574;7.770;2024-01-07T07:17:23;102605.53;;;-2.43;46.96
45040;BME280;30778;53.574;7.770;2024-01-07T07:19:48;102601.78;;;-2.30;46.70
45040;BME280;30778;53.574;7.770;2024-01-07T07:22:14;102605.69;;;-2.39;46.51
45040;BME280;30778;53.574;7.770;2024-01-07T07:24:41;102608.31;;;-2.38;46.89
45040;BME280;30778;53.574;7.770;2024-01-07T07:27:07;102617.66;;;-2.38;47.05
45040;BME280;30778;53.574;7.770;2024-01-07T07:29:33;102619.72;;;-2.30;46.84
45040;BME280;30778;53.574;7.770;2024-01-07T07:31:59;102618.66;;;-2.35;46.81
45040;BME280;30778;53.574;7.770;2024-01-07T07:34:24;102630.13;;;-2.27;46.80
45040;BME280;30778;53.574;7.770;2024-01-07T07:36:50;102627.66;;;-2.24;46.56
45040;BME280;30778;53.574;7.770;2024-01-07T07:39:15;102636.59;;;-2.14;46.43
45040;BME280;30778;53.574;7.770;2024-01-07T07:41:41;102630.50;;;-2.17;46.54
45040;BME280;30778;53.574;7.770;2024-01-07T07:44:07;102634.03;;;-2.14;46.71
45040;BME280;30778;53.574;7.770;2024-01-07T07:46:33;102640.06;;;-2.13;46.71
45040;BME280;30778;53.574;7.770;2024-01-07T07:48:59;102638.53;;;-2.29;46.43
45040;BME280;30778;53.574;7.770;2024-01-07T07:51:26;102644.78;;;-2.23;46.13
45040;BME280;30778;53.574;7.770;2024-01-07T07:53:52;102646.91;;;-2.33;46.52
45040;BME280;30778;53.574;7.770;2024-01-07T07:56:17;102653.50;;;-2.38;46.32
45040;BME280;30778;53.574;7.770;2024-01-07T07:58:43;102661.25;;;-2.37;46.15
45040;BME280;30778;53.574;7.770;2024-01-07T08:01:08;102671.50;;;-2.37;46.56
45040;BME280;30778;53.574;7.770;2024-01-07T08:03:34;102667.44;;;-2.32;46.42
45040;BME280;30778;53.574;7.770;2024-01-07T08:06:00;102669.69;;;-2.39;46.67
45040;BME280;30778;53.574;7.770;2024-01-07T08:08:25;102673.94;;;-2.40;47.04
45040;BME280;30778;53.574;7.770;2024-01-07T08:10:51;102671.13;;;-2.25;46.90
45040;BME280;30778;53.574;7.770;2024-01-07T08:13:16;102676.00;;;-2.31;46.69
45040;BME280;30778;53.574;7.770;2024-01-07T08:15:42;102681.28;;;-2.28;47.09
45040;BME280;30778;53.574;7.770;2024-01-07T08:18:08;102680.78;;;-2.19;47.19
45040;BME280;30778;53.574;7.770;2024-01-07T08:20:33;102682.25;;;-2.25;46.95
45040;BME280;30778;53.574;7.770;2024-01-07T08:22:59;102682.50;;;-2.39;47.91
45040;BME280;30778;53.574;7.770;2024-01-07T08:25:25;102689.25;;;-2.21;48.18
45040;BME280;30778;53.574;7.770;2024-01-07T08:27:51;102687.38;;;-2.25;48.33
45040;BME280;30778;53.574;7.770;2024-01-07T08:30:16;102694.28;;;-2.24;48.67
45040;BME280;30778;53.574;7.770;2024-01-07T08:32:42;102685.00;;;-2.41;49.25
45040;BME280;30778;53.574;7.770;2024-01-07T08:35:08;102696.19;;;-2.39;49.23
45040;BME280;30778;53.574;7.770;2024-01-07T08:37:35;102707.16;;;-2.61;49.58
45040;BME280;30778;53.574;7.770;2024-01-07T08:40:01;102708.47;;;-2.51;49.22
45040;BME280;30778;53.574;7.770;2024-01-07T08:42:27;102706.00;;;-2.68;49.39
45040;BME280;30778;53.574;7.770;2024-01-07T08:44:55;102712.09;;;-2.46;48.87
45040;BME280;30778;53.574;7.770;2024-01-07T08:47:21;102712.00;;;-2.48;49.20
45040;BME280;30778;53.574;7.770;2024-01-07T08:49:47;102712.75;;;-2.70;49.61
45040;BME280;30778;53.574;7.770;2024-01-07T08:52:12;102718.75;;;-2.50;49.38
45040;BME280;30778;53.574;7.770;2024-01-07T08:54:38;102725.13;;;-2.21;49.01
45040;BME280;30778;53.574;7.770;2024-01-07T08:57:04;102719.63;;;-2.30;49.92
45040;BME280;30778;53.574;7.770;2024-01-07T08:59:29;102731.16;;;-2.20;50.14
45040;BME280;30778;53.574;7.770;2024-01-07T09:01:56;102735.91;;;-2.08;49.56
45040;BME280;30778;53.574;7.770;2024-01-07T09:04:22;102741.59;;;-2.35;50.07
45040;BME280;30778;53.574;7.770;2024-01-07T09:06:48;102738.63;;;-2.25;50.26
45040;BME280;30778;53.574;7.770;2024-01-07T09:09:13;102757.13;;;-2.51;51.19
45040;BME280;30778;53.574;7.770;2024-01-07T09:11:39;102754.22;;;-2.39;50.98
45040;BME280;30778;53.574;7.770;2024-01-07T09:14:04;102759.25;;;-2.22;50.37
45040;BME280;30778;53.574;7.770;2024-01-07T09:16:30;102767.63;;;-2.26;50.50
45040;BME280;30778;53.574;7.770;2024-01-07T09:18:56;102767.84;;;-2.00;50.00
45040;BME280;30778;53.574;7.770;2024-01-07T09:21:21;102772.19;;;-2.18;50.20
45040;BME280;30778;53.574;7.770;2024-01-07T09:23:48;102772.88;;;-2.42;50.60
45040;BME280;30778;53.574;7.770;2024-01-07T09:26:13;102775.50;;;-2.40;50.60
45040;BME280;30778;53.574;7.770;2024-01-07T09:28:39;102776.59;;;-2.35;50.35
45040;BME280;30778;53.574;7.770;2024-01-07T09:31:05;102787.09;;;-2.29;50.34
45040;BME280;30778;53.574;7.770;2024-01-07T09:33:31;102784.19;;;-2.37;50.54
45040;BME280;30778;53.574;7.770;2024-01-07T09:35:56;102791.72;;;-2.01;51.32
45040;BME280;30778;53.574;7.770;2024-01-07T09:38:22;102789.41;;;-1.75;50.02
45040;BME280;30778;53.574;7.770;2024-01-07T09:40:50;102795.78;;;-1.24;48.71
45040;BME280;30778;53.574;7.770;2024-01-07T09:43:16;102789.97;;;-1.41;47.98
45040;BME280;30778;53.574;7.770;2024-01-07T09:45:45;102795.34;;;-1.55;48.44
45040;BME280;30778;53.574;7.770;2024-01-07T09:48:11;102794.16;;;-1.43;48.98
45040;BME280;30778;53.574;7.770;2024-01-07T09:50:37;102794.22;;;-1.41;48.24
45040;BME280;30778;53.574;7.770;2024-01-07T09:53:03;102799.34;;;-1.20;48.13
45040;BME280;30778;53.574;7.770;2024-01-07T09:55:54;102796.53;;;-1.05;47.50
45040;BME280;30778;53.574;7.770;2024-01-07T09:58:22;102804.31;;;-1.46;48.36
45040;BME280;30778;53.574;7.770;2024-01-07T10:00:47;102799.66;;;-1.33;48.31
45040;BME280;30778;53.574;7.770;2024-01-07T10:03:13;102803.34;;;-1.27;48.88
45040;BME280;30778;53.574;7.770;2024-01-07T10:05:39;102798.81;;;-1.11;48.08
45040;BME280;30778;53.574;7.770;2024-01-07T10:08:05;102804.19;;;-0.84;48.26
45040;BME280;30778;53.574;7.770;2024-01-07T10:10:31;102805.34;;;-0.53;47.35
45040;BME280;30778;53.574;7.770;2024-01-07T10:12:57;102805.81;;;-0.86;47.97
45040;BME280;30778;53.574;7.770;2024-01-07T10:15:23;102806.75;;;-0.62;47.73
45040;BME280;30778;53.574;7.770;2024-01-07T10:17:48;102806.38;;;-0.72;47.59
45040;BME280;30778;53.574;7.770;2024-01-07T10:20:16;102811.19;;;-0.80;46.84
45040;BME280;30778;53.574;7.770;2024-01-07T10:22:46;102816.34;;;-1.22;48.16
45040;BME280;30778;53.574;7.770;2024-01-07T10:25:15;102808.38;;;-1.51;48.29
45040;BME280;30778;53.574;7.770;2024-01-07T10:27:40;102811.94;;;-1.68;49.00
45040;BME280;30778;53.574;7.770;2024-01-07T10:30:06;102810.06;;;-1.92;49.12
45040;BME280;30778;53.574;7.770;2024-01-07T10:32:35;102810.94;;;-1.91;49.24
45040;BME280;30778;53.574;7.770;2024-01-07T10:35:04;102822.16;;;-2.09;49.89
45040;BME280;30778;53.574;7.770;2024-01-07T10:37:31;102820.19;;;-2.14;49.86
45040;BME280;30778;53.574;7.770;2024-01-07T10:40:00;102811.63;;;-2.15;50.02
45040;BME280;30778;53.574;7.770;2024-01-07T10:42:32;102814.28;;;-2.13;50.09
45040;BME280;30778;53.574;7.770;2024-01-07T10:44:59;102819.22;;;-2.55;50.72
45040;BME280;30778;53.574;7.770;2024-01-07T10:47:29;102819.50;;;-2.30;50.43
45040;BME280;30778;53.574;7.770;2024-01-07T10:49:57;102827.34;;;-2.27;50.27
45040;BME280;30778;53.574;7.770;2024-01-07T10:52:23;102815.53;;;-2.04;49.67
45040;BME280;30778;53.574;7.770;2024-01-07T10:54:48;102822.69;;;-1.96;49.60
45040;BME280;30778;53.574;7.770;2024-01-07T11:00:02;102827.41;;;-1.46;48.72
45040;BME280;30778;53.574;7.770;2024-01-07T11:02:55;102833.34;;;-1.26;48.84
45040;BME280;30778;53.574;7.770;2024-01-07T11:05:52;102831.22;;;-1.15;48.82
45040;BME280;30778;53.574;7.770;2024-01-07T11:08:28;102830.72;;;-1.48;48.45
45040;BME280;30778;53.574;7.770;2024-01-07T11:11:09;102833.53;;;-1.83;49.09
45040;BME280;30778;53.574;7.770;2024-01-07T11:13:39;102850.88;;;-2.16;49.63
45040;BME280;30778;53.574;7.770;2024-01-07T11:16:08;102843.09;;;-2.37;50.18
45040;BME280;30778;53.574;7.770;2024-01-07T11:18:45;102841.16;;;-2.60;51.20
45040;BME280;30778;53.574;7.770;2024-01-07T11:21:21;102845.13;;;-2.30;51.21
45040;BME280;30778;53.574;7.770;2024-01-07T11:23:47;102841.16;;;-2.23;50.86
45040;BME280;30778;53.574;7.770;2024-01-07T11:26:12;102837.72;;;-1.85;50.35
45040;BME280;30778;53.574;7.770;2024-01-07T11:28:52;102840.38;;;-1.62;49.84
45040;BME280;30778;53.574;7.770;2024-01-07T11:31:21;102834.78;;;-1.32;49.47
45040;BME280;30778;53.574;7.770;2024-01-07T11:34:06;102837.25;;;-1.13;48.40
45040;BME280;30778;53.574;7.770;2024-01-07T11:36:35;102836.78;;;-1.04;48.50
45040;BME280;30778;53.574;7.770;2024-01-07T11:39:01;102837.13;;;-0.74;47.94
45040;BME280;30778;53.574;7.770;2024-01-07T11:41:29;102837.91;;;-1.40;48.75
45040;BME280;30778;53.574;7.770;2024-01-07T11:43:58;102837.50;;;-1.07;48.02
45040;BME280;30778;53.574;7.770;2024-01-07T11:46:26;102851.59;;;-1.18;47.53
45040;BME280;30778;53.574;7.770;2024-01-07T11:48:57;102838.81;;;-1.59;48.17
45040;BME280;30778;53.574;7.770;2024-01-07T11:51:31;102843.28;;;-1.33;48.14
45040;BME280;30778;53.574;7.770;2024-01-07T11:54:00;102838.31;;;-1.71;48.93
45040;BME280;30778;53.574;7.770;2024-01-07T11:56:31;102837.47;;;-1.50;48.71
45040;BME280;30778;53.574;7.770;2024-01-07T11:58:57;102841.16;;;-1.44;48.95
45040;BME280;30778;53.574;7.770;2024-01-07T12:01:25;102843.19;;;-1.56;48.66
45040;BME280;30778;53.574;7.770;2024-01-07T12:03:51;102842.94;;;-1.62;48.72
45040;BME280;30778;53.574;7.770;2024-01-07T12:06:19;102844.09;;;-1.34;48.82
45040;BME280;30778;53.574;7.770;2024-01-07T12:08:45;102833.50;;;-1.63;49.36
45040;BME280;30778;53.574;7.770;2024-01-07T12:11:12;102842.44;;;-1.74;49.38
45040;BME280;30778;53.574;7.770;2024-01-07T12:13:38;102848.91;;;-2.22;50.43
45040;BME280;30778;53.574;7.770;2024-01-07T12:16:08;102848.09;;;-2.21;50.42
45040;BME280;30778;53.574;7.770;2024-01-07T12:18:37;102851.53;;;-2.01;50.14
45040;BME280;30778;53.574;7.770;2024-01-07T12:21:03;102852.72;;;-2.13;50.61
45040;BME280;30778;53.574;7.770;2024-01-07T12:23:34;102855.31;;;-2.12;50.42
45040;BME280;30778;53.574;7.770;2024-01-07T12:26:12;102845.00;;;-1.94;49.89
45040;BME280;30778;53.574;7.770;2024-01-07T12:28:38;102847.28;;;-2.00;50.08
45040;BME280;30778;53.574;7.770;2024-01-07T12:31:05;102851.19;;;-2.28;50.66
45040;BME280;30778;53.574;7.770;2024-01-07T12:33:31;102859.41;;;-2.35;50.42
45040;BME280;30778;53.574;7.770;2024-01-07T12:35:57;102858.84;;;-2.47;51.06
45040;BME280;30778;53.574;7.770;2024-01-07T12:38:27;102843.22;;;-2.34;50.52
45040;BME280;30778;53.574;7.770;2024-01-07T12:40:53;102847.16;;;-2.42;50.40
45040;BME280;30778;53.574;7.770;2024-01-07T12:43:19;102847.94;;;-2.43;50.93
45040;BME280;30778;53.574;7.770;2024-01-07T12:45:44;102854.72;;;-2.26;50.41
45040;BME280;30778;53.574;7.770;2024-01-07T12:48:11;102853.22;;;-2.21;50.46
45040;BME280;30778;53.574;7.770;2024-01-07T12:50:37;102846.03;;;-2.10;50.22